sensor_id;sensor_type;location;lat;lon;timestamp;P1;durP1;ratioP1;P2;durP2;ratioP2
12687;SDS011;6408;59.388;17.798;2023-02-15T00:01:35;5.03;;;3.53;;
12687;SDS011;6408;59.388;17.798;2023-02-15T00:04:05;6.27;;;3.20;;
12687;SDS011;6408;59.388;17.798;2023-02-15T00:06:33;6.93;;;3.30;;
12687;SDS011;6408;59.388;17.798;2023-02-15T00:09:01;4.37;;;3.37;;
12687;SDS011;6408;59.388;17.798;2023-02-15T00:11:30;6.53;;;3.53;;
12687;SDS011;6408;59.388;17.798;2023-02-15T00:14:08;6.27;;;3.50;;
12687;SDS011;6408;59.388;17.798;2023-02-15T00:16:38;6.37;;;3.70;;
12687;SDS011;6408;59.388;17.798;2023-02-15T00:19:08;7.20;;;3.90;;
12687;SDS011;6408;59.388;17.798;2023-02-15T00:21:38;6.03;;;3.80;;
12687;SDS011;6408;59.388;17.798;2023-02-15T00:24:07;6.50;;;4.20;;
12687;SDS011;6408;59.388;17.798;2023-02-15T00:26:35;6.20;;;4.07;;
12687;SDS011;6408;59.388;17.798;2023-02-15T00:29:05;7.63;;;4.13;;
12687;SDS011;6408;59.388;17.798;2023-02-15T00:31:33;3.97;;;3.23;;
12687;SDS011;6408;59.388;17.798;2023-02-15T00:34:01;3.77;;;3.00;;
12687;SDS011;6408;59.388;17.798;2023-02-15T00:36:31;6.57;;;3.37;;
12687;SDS011;6408;59.388;17.798;2023-02-15T00:38:59;6.07;;;3.27;;
12687;SDS011;6408;59.388;17.798;2023-02-15T00:41:26;6.83;;;3.03;;
12687;SDS011;6408;59.388;17.798;2023-02-15T00:43:53;5.43;;;3.43;;
12687;SDS011;6408;59.388;17.798;2023-02-15T00:46:21;5.70;;;3.20;;
12687;SDS011;6408;59.388;17.798;2023-02-15T00:48:48;6.10;;;3.30;;
12687;SDS011;6408;59.388;17.798;2023-02-15T00:51:16;4.53;;;3.10;;
12687;SDS011;6408;59.388;17.798;2023-02-15T00:53:47;5.33;;;2.80;;
12687;SDS011;6408;59.388;17.798;2023-02-15T00:56:15;7.77;;;3.30;;
12687;SDS011;6408;59.388;17.798;2023-02-15T00:58:43;4.87;;;3.10;;
12687;SDS011;6408;59.388;17.798;2023-02-15T01:01:11;5.93;;;3.30;;
12687;SDS011;6408;59.388;17.798;2023-02-15T01:03:40;5.73;;;3.10;;
12687;SDS011;6408;59.388;17.798;2023-02-15T01:06:08;5.23;;;3.10;;
12687;SDS011;6408;59.388;17.798;2023-02-15T01:08:36;7.33;;;3.53;;
12687;SDS011;6408;59.388;17.798;2023-02-15T01:11:06;4.97;;;3.03;;
12687;SDS011;6408;59.388;17.798;2023-02-15T01:13:35;6.07;;;3.17;;
12687;SDS011;6408;59.388;17.798;2023-02-15T01:16:03;6.03;;;3.50;;
12687;SDS011;6408;59.388;17.798;2023-02-15T01:18:31;4.80;;;3.20;;
12687;SDS011;6408;59.388;17.798;2023-02-15T01:20:59;4.50;;;3.20;;
12687;SDS011;6408;59.388;17.798;2023-02-15T01:23:26;4.60;;;2.93;;
12687;SDS011;6408;59.388;17.798;2023-02-15T01:25:54;4.20;;;3.10;;
12687;SDS011;6408;59.388;17.798;2023-02-15T01:28:23;4.00;;;2.80;;
12687;SDS011;6408;59.388;17.798;2023-02-15T01:30:51;5.43;;;2.93;;
12687;SDS011;6408;59.388;17.798;2023-02-15T01:33:18;4.10;;;3.00;;
12687;SDS011;6408;59.388;17.798;2023-02-15T01:35:46;5.53;;;3.33;;
12687;SDS011;6408;59.388;17.798;2023-02-15T01:38:14;6.53;;;2.83;;
12687;SDS011;6408;59.388;17.798;2023-02-15T01:40:41;6.27;;;2.87;;
12687;SDS011;6408;59.388;17.798;2023-02-15T01:43:10;3.97;;;3.00;;
12687;SDS011;6408;59.388;17.798;2023-02-15T01:45:40;4.77;;;2.60;;
12687;SDS011;6408;59.388;17.798;2023-02-15T01:48:13;6.47;;;3.57;;
12687;SDS011;6408;59.388;17.798;2023-02-15T01:50:48;4.17;;;2.90;;
12687;SDS011;6408;59.388;17.798;2023-02-15T01:53:21;6.03;;;3.27;;
12687;SDS011;6408;59.388;17.798;2023-02-15T01:55:52;5.93;;;3.03;;
12687;SDS011;6408;59.388;17.798;2023-02-15T01:58:24;4.40;;;2.90;;
12687;SDS011;6408;59.388;17.798;2023-02-15T02:00:56;5.00;;;3.03;;
12687;SDS011;6408;59.388;17.798;2023-02-15T02:03:29;7.37;;;3.23;;
12687;SDS011;6408;59.388;17.798;2023-02-15T02:06:03;9.97;;;3.50;;
12687;SDS011;6408;59.388;17.798;2023-02-15T02:08:31;6.10;;;3.40;;
12687;SDS011;6408;59.388;17.798;2023-02-15T02:10:58;4.50;;;3.17;;
12687;SDS011;6408;59.388;17.798;2023-02-15T02:13:26;7.27;;;3.17;;
12687;SDS011;6408;59.388;17.798;2023-02-15T02:15:57;6.43;;;3.00;;
12687;SDS011;6408;59.388;17.798;2023-02-15T02:18:34;5.90;;;3.07;;
12687;SDS011;6408;59.388;17.798;2023-02-15T02:21:25;5.10;;;3.50;;
12687;SDS011;6408;59.388;17.798;2023-02-15T02:24:18;5.40;;;3.37;;
12687;SDS011;6408;59.388;17.798;2023-02-15T02:30:20;4.73;;;3.13;;
12687;SDS011;6408;59.388;17.798;2023-02-15T02:39:05;6.40;;;3.67;;
12687;SDS011;6408;59.388;17.798;2023-02-15T02:41:42;6.60;;;3.43;;
12687;SDS011;6408;59.388;17.798;2023-02-15T02:44:16;6.67;;;3.53;;
12687;SDS011;6408;59.388;17.798;2023-02-15T02:46:48;4.30;;;3.43;;
12687;SDS011;6408;59.388;17.798;2023-02-15T02:49:28;6.30;;;3.77;;
12687;SDS011;6408;59.388;17.798;2023-02-15T02:51:59;5.10;;;3.57;;
12687;SDS011;6408;59.388;17.798;2023-02-15T02:54:28;5.57;;;3.57;;
12687;SDS011;6408;59.388;17.798;2023-02-15T02:56:58;7.77;;;3.50;;
12687;SDS011;6408;59.388;17.798;2023-02-15T02:59:29;7.43;;;3.23;;
12687;SDS011;6408;59.388;17.798;2023-02-15T03:02:02;5.77;;;3.47;;
12687;SDS011;6408;59.388;17.798;2023-02-15T03:04:38;6.67;;;3.73;;
12687;SDS011;6408;59.388;17.798;2023-02-15T03:07:11;7.27;;;3.90;;
12687;SDS011;6408;59.388;17.798;2023-02-15T03:09:43;11.00;;;4.23;;
12687;SDS011;6408;59.388;17.798;2023-02-15T03:12:15;5.97;;;3.60;;
12687;SDS011;6408;59.388;17.798;2023-02-15T03:14:46;6.33;;;3.73;;
12687;SDS011;6408;59.388;17.798;2023-02-15T03:17:16;9.57;;;4.20;;
12687;SDS011;6408;59.388;17.798;2023-02-15T03:19:45;6.60;;;4.23;;
12687;SDS011;6408;59.388;17.798;2023-02-15T03:22:20;9.00;;;4.40;;
12687;SDS011;6408;59.388;17.798;2023-02-15T03:24:55;7.33;;;4.83;;
12687;SDS011;6408;59.388;17.798;2023-02-15T03:27:25;7.67;;;4.50;;
12687;SDS011;6408;59.388;17.798;2023-02-15T03:29:58;7.53;;;5.07;;
12687;SDS011;6408;59.388;17.798;2023-02-15T03:32:29;5.47;;;4.20;;
12687;SDS011;6408;59.388;17.798;2023-02-15T03:34:59;8.17;;;4.20;;
12687;SDS011;6408;59.388;17.798;2023-02-15T03:37:29;6.57;;;4.60;;
12687;SDS011;6408;59.388;17.798;2023-02-15T03:40:03;6.33;;;4.60;;
12687;SDS011;6408;59.388;17.798;2023-02-15T03:42:49;9.30;;;4.50;;
12687;SDS011;6408;59.388;17.798;2023-02-15T03:45:22;8.63;;;4.90;;
12687;SDS011;6408;59.388;17.798;2023-02-15T03:47:53;5.90;;;4.00;;
12687;SDS011;6408;59.388;17.798;2023-02-15T03:50:25;6.50;;;4.20;;
12687;SDS011;6408;59.388;17.798;2023-02-15T03:53:14;8.30;;;4.37;;
12687;SDS011;6408;59.388;17.798;2023-02-15T03:55:46;7.20;;;5.23;;
12687;SDS011;6408;59.388;17.798;2023-02-15T03:58:14;8.33;;;5.00;;
12687;SDS011;6408;59.388;17.798;2023-02-15T04:00:58;6.00;;;4.30;;
12687;SDS011;6408;59.388;17.798;2023-02-15T04:03:46;7.30;;;5.20;;
12687;SDS011;6408;59.388;17.798;2023-02-15T04:06:19;8.40;;;5.37;;
12687;SDS011;6408;59.388;17.798;2023-02-15T04:08:48;8.27;;;5.40;;
12687;SDS011;6408;59.388;17.798;2023-02-15T04:11:33;9.13;;;5.07;;
12687;SDS011;6408;59.388;17.798;2023-02-15T04:14:00;9.97;;;5.20;;
12687;SDS011;6408;59.388;17.798;2023-02-15T04:16:47;9.97;;;5.90;;
12687;SDS011;6408;59.388;17.798;2023-02-15T04:19:14;8.30;;;5.90;;
12687;SDS011;6408;59.388;17.798;2023-02-15T04:21:59;9.33;;;6.00;;
12687;SDS011;6408;59.388;17.798;2023-02-15T04:24:45;9.80;;;5.83;;
12687;SDS011;6408;59.388;17.798;2023-02-15T04:27:30;8.83;;;5.83;;
12687;SDS011;6408;59.388;17.798;2023-02-15T04:29:57;10.63;;;6.33;;
12687;SDS011;6408;59.388;17.798;2023-02-15T04:32:25;11.03;;;6.23;;
12687;SDS011;6408;59.388;17.798;2023-02-15T04:34:52;8.93;;;6.13;;
12687;SDS011;6408;59.388;17.798;2023-02-15T04:37:20;10.10;;;5.93;;
12687;SDS011;6408;59.388;17.798;2023-02-15T04:39:49;10.13;;;6.33;;
12687;SDS011;6408;59.388;17.798;2023-02-15T04:42:16;12.33;;;6.27;;
12687;SDS011;6408;59.388;17.798;2023-02-15T04:44:44;9.13;;;5.90;;
12687;SDS011;6408;59.388;17.798;2023-02-15T04:47:11;9.37;;;6.63;;
12687;SDS011;6408;59.388;17.798;2023-02-15T04:49:39;12.73;;;6.80;;
12687;SDS011;6408;59.388;17.798;2023-02-15T04:52:06;11.27;;;6.80;;
12687;SDS011;6408;59.388;17.798;2023-02-15T04:54:34;8.87;;;6.30;;
12687;SDS011;6408;59.388;17.798;2023-02-15T04:57:03;10.90;;;7.03;;
12687;SDS011;6408;59.388;17.798;2023-02-15T04:59:31;10.30;;;6.40;;
12687;SDS011;6408;59.388;17.798;2023-02-15T05:01:58;10.57;;;6.47;;
12687;SDS011;6408;59.388;17.798;2023-02-15T05:04:26;13.13;;;7.07;;
12687;SDS011;6408;59.388;17.798;2023-02-15T05:06:53;8.37;;;6.50;;
12687;SDS011;6408;59.388;17.798;2023-02-15T05:09:21;11.20;;;7.40;;
12687;SDS011;6408;59.388;17.798;2023-02-15T05:11:48;10.87;;;7.10;;
12687;SDS011;6408;59.388;17.798;2023-02-15T05:14:17;11.50;;;6.60;;
12687;SDS011;6408;59.388;17.798;2023-02-15T05:16:45;9.83;;;6.53;;
12687;SDS011;6408;59.388;17.798;2023-02-15T05:19:12;9.20;;;6.50;;
12687;SDS011;6408;59.388;17.798;2023-02-15T05:21:40;13.07;;;7.07;;
12687;SDS011;6408;59.388;17.798;2023-02-15T05:24:07;10.73;;;7.40;;
12687;SDS011;6408;59.388;17.798;2023-02-15T05:26:48;10.73;;;6.50;;
12687;SDS011;6408;59.388;17.798;2023-02-15T05:29:34;12.83;;;6.37;;
12687;SDS011;6408;59.388;17.798;2023-02-15T05:32:02;10.70;;;7.67;;
12687;SDS011;6408;59.388;17.798;2023-02-15T05:34:29;10.97;;;7.40;;
12687;SDS011;6408;59.388;17.798;2023-02-15T05:36:57;11.47;;;6.87;;
12687;SDS011;6408;59.388;17.798;2023-02-15T05:39:24;11.30;;;6.83;;
12687;SDS011;6408;59.388;17.798;2023-02-15T05:41:52;11.80;;;7.30;;
12687;SDS011;6408;59.388;17.798;2023-02-15T05:44:20;15.13;;;7.33;;
12687;SDS011;6408;59.388;17.798;2023-02-15T05:46:49;10.90;;;7.20;;
12687;SDS011;6408;59.388;17.798;2023-02-15T05:49:17;17.27;;;7.83;;
12687;SDS011;6408;59.388;17.798;2023-02-15T05:51:44;13.17;;;7.67;;
12687;SDS011;6408;59.388;17.798;2023-02-15T05:54:12;13.43;;;7.43;;
12687;SDS011;6408;59.388;17.798;2023-02-15T05:56:40;10.93;;;7.47;;
12687;SDS011;6408;59.388;17.798;2023-02-15T05:59:07;16.33;;;8.07;;
12687;SDS011;6408;59.388;17.798;2023-02-15T06:01:35;13.87;;;7.17;;
12687;SDS011;6408;59.388;17.798;2023-02-15T06:04:04;12.50;;;6.83;;
12687;SDS011;6408;59.388;17.798;2023-02-15T06:06:32;9.73;;;6.60;;
12687;SDS011;6408;59.388;17.798;2023-02-15T06:08:59;11.37;;;6.27;;
12687;SDS011;6408;59.388;17.798;2023-02-15T06:11:27;10.93;;;6.47;;
12687;SDS011;6408;59.388;17.798;2023-02-15T06:13:54;9.57;;;6.47;;
12687;SDS011;6408;59.388;17.798;2023-02-15T06:16:21;11.90;;;6.60;;
12687;SDS011;6408;59.388;17.798;2023-02-15T06:18:49;10.70;;;6.10;;
12687;SDS011;6408;59.388;17.798;2023-02-15T06:21:18;12.53;;;6.80;;
12687;SDS011;6408;59.388;17.798;2023-02-15T06:23:45;10.90;;;6.40;;
12687;SDS011;6408;59.388;17.798;2023-02-15T06:26:13;11.47;;;6.60;;
12687;SDS011;6408;59.388;17.798;2023-02-15T06:28:41;11.80;;;6.43;;
12687;SDS011;6408;59.388;17.798;2023-02-15T06:31:08;12.97;;;6.23;;
12687;SDS011;6408;59.388;17.798;2023-02-15T06:33:36;10.90;;;6.73;;
12687;SDS011;6408;59.388;17.798;2023-02-15T06:36:03;11.43;;;6.43;;
12687;SDS011;6408;59.388;17.798;2023-02-15T06:38:32;9.90;;;6.73;;
12687;SDS011;6408;59.388;17.798;2023-02-15T06:41:00;11.80;;;6.60;;
12687;SDS011;6408;59.388;17.798;2023-02-15T06:43:27;10.07;;;5.87;;
12687;SDS011;6408;59.388;17.798;2023-02-15T06:45:55;9.90;;;6.27;;
12687;SDS011;6408;59.388;17.798;2023-02-15T06:48:22;11.13;;;6.27;;
12687;SDS011;6408;59.388;17.798;2023-02-15T06:50:50;9.60;;;6.80;;
12687;SDS011;6408;59.388;17.798;2023-02-15T06:53:17;7.77;;;5.47;;
12687;SDS011;6408;59.388;17.798;2023-02-15T06:55:46;11.03;;;6.47;;
12687;SDS011;6408;59.388;17.798;2023-02-15T06:58:14;10.93;;;6.17;;
12687;SDS011;6408;59.388;17.798;2023-02-15T07:00:41;10.40;;;6.43;;
12687;SDS011;6408;59.388;17.798;2023-02-15T07:03:08;10.07;;;6.30;;
12687;SDS011;6408;59.388;17.798;2023-02-15T07:05:35;13.30;;;6.90;;
12687;SDS011;6408;59.388;17.798;2023-02-15T07:08:03;9.57;;;5.77;;
12687;SDS011;6408;59.388;17.798;2023-02-15T07:10:30;9.60;;;5.37;;
12687;SDS011;6408;59.388;17.798;2023-02-15T07:12:59;8.17;;;5.13;;
12687;SDS011;6408;59.388;17.798;2023-02-15T07:15:25;10.07;;;6.23;;
12687;SDS011;6408;59.388;17.798;2023-02-15T07:17:52;10.03;;;6.27;;
12687;SDS011;6408;59.388;17.798;2023-02-15T07:20:20;9.63;;;6.07;;
12687;SDS011;6408;59.388;17.798;2023-02-15T07:22:49;7.73;;;5.67;;
12687;SDS011;6408;59.388;17.798;2023-02-15T07:25:17;9.40;;;5.70;;
12687;SDS011;6408;59.388;17.798;2023-02-15T07:27:44;11.33;;;6.23;;
12687;SDS011;6408;59.388;17.798;2023-02-15T07:30:15;9.37;;;5.50;;
12687;SDS011;6408;59.388;17.798;2023-02-15T07:32:43;11.57;;;6.00;;
12687;SDS011;6408;59.388;17.798;2023-02-15T07:35:28;8.30;;;5.50;;
12687;SDS011;6408;59.388;17.798;2023-02-15T07:37:55;9.00;;;5.20;;
12687;SDS011;6408;59.388;17.798;2023-02-15T07:40:22;8.80;;;5.60;;
12687;SDS011;6408;59.388;17.798;2023-02-15T07:42:50;8.10;;;5.60;;
12687;SDS011;6408;59.388;17.798;2023-02-15T07:45:21;8.47;;;5.60;;
12687;SDS011;6408;59.388;17.798;2023-02-15T07:47:48;10.00;;;6.33;;
12687;SDS011;6408;59.388;17.798;2023-02-15T07:50:16;8.80;;;5.10;;
12687;SDS011;6408;59.388;17.798;2023-02-15T07:52:43;9.67;;;5.40;;
12687;SDS011;6408;59.388;17.798;2023-02-15T07:55:11;10.17;;;6.10;;
12687;SDS011;6408;59.388;17.798;2023-02-15T07:57:41;8.17;;;5.37;;
12687;SDS011;6408;59.388;17.798;2023-02-15T08:00:10;8.60;;;5.17;;
12687;SDS011;6408;59.388;17.798;2023-02-15T08:02:40;7.37;;;5.43;;
12687;SDS011;6408;59.388;17.798;2023-02-15T08:05:08;9.13;;;5.73;;
12687;SDS011;6408;59.388;17.798;2023-02-15T08:07:35;9.23;;;5.90;;
12687;SDS011;6408;59.388;17.798;2023-02-15T08:10:02;9.40;;;5.20;;
12687;SDS011;6408;59.388;17.798;2023-02-15T08:12:30;7.43;;;4.83;;
12687;SDS011;6408;59.388;17.798;2023-02-15T08:14:57;8.27;;;5.07;;
12687;SDS011;6408;59.388;17.798;2023-02-15T08:17:25;8.00;;;5.37;;
12687;SDS011;6408;59.388;17.798;2023-02-15T08:19:54;7.27;;;4.60;;
12687;SDS011;6408;59.388;17.798;2023-02-15T08:22:21;8.00;;;4.83;;
12687;SDS011;6408;59.388;17.798;2023-02-15T08:24:49;7.20;;;4.80;;
12687;SDS011;6408;59.388;17.798;2023-02-15T08:27:16;7.07;;;4.70;;
12687;SDS011;6408;59.388;17.798;2023-02-15T08:29:51;8.73;;;4.67;;
12687;SDS011;6408;59.388;17.798;2023-02-15T08:32:18;10.57;;;5.00;;
12687;SDS011;6408;59.388;17.798;2023-02-15T08:34:46;6.50;;;4.20;;
12687;SDS011;6408;59.388;17.798;2023-02-15T08:37:15;7.67;;;4.87;;
12687;SDS011;6408;59.388;17.798;2023-02-15T08:39:43;8.27;;;4.40;;
12687;SDS011;6408;59.388;17.798;2023-02-15T08:42:11;9.07;;;4.60;;
12687;SDS011;6408;59.388;17.798;2023-02-15T08:44:38;7.30;;;4.40;;
12687;SDS011;6408;59.388;17.798;2023-02-15T08:47:06;6.13;;;4.03;;
12687;SDS011;6408;59.388;17.798;2023-02-15T08:49:33;6.53;;;4.47;;
12687;SDS011;6408;59.388;17.798;2023-02-15T08:52:00;6.23;;;4.53;;
12687;SDS011;6408;59.388;17.798;2023-02-15T08:54:30;5.90;;;4.40;;
12687;SDS011;6408;59.388;17.798;2023-02-15T08:56:57;7.83;;;4.20;;
12687;SDS011;6408;59.388;17.798;2023-02-15T08:59:25;7.77;;;4.50;;
12687;SDS011;6408;59.388;17.798;2023-02-15T09:01:53;7.13;;;4.50;;
12687;SDS011;6408;59.388;17.798;2023-02-15T09:04:20;7.00;;;4.93;;
12687;SDS011;6408;59.388;17.798;2023-02-15T09:06:48;6.73;;;4.33;;
12687;SDS011;6408;59.388;17.798;2023-02-15T09:09:18;6.97;;;4.83;;
12687;SDS011;6408;59.388;17.798;2023-02-15T09:11:48;6.37;;;4.20;;
12687;SDS011;6408;59.388;17.798;2023-02-15T09:14:17;6.53;;;4.17;;
12687;SDS011;6408;59.388;17.798;2023-02-15T09:16:46;6.27;;;4.07;;
12687;SDS011;6408;59.388;17.798;2023-02-15T09:19:16;7.80;;;4.30;;
12687;SDS011;6408;59.388;17.798;2023-02-15T09:21:44;5.43;;;4.10;;
12687;SDS011;6408;59.388;17.798;2023-02-15T09:24:13;5.70;;;3.90;;
12687;SDS011;6408;59.388;17.798;2023-02-15T09:26:42;5.83;;;4.20;;
12687;SDS011;6408;59.388;17.798;2023-02-15T09:29:14;7.20;;;4.37;;
12687;SDS011;6408;59.388;17.798;2023-02-15T09:31:42;7.77;;;4.37;;
12687;SDS011;6408;59.388;17.798;2023-02-15T09:34:11;7.97;;;4.17;;
12687;SDS011;6408;59.388;17.798;2023-02-15T09:36:39;6.90;;;4.20;;
12687;SDS011;6408;59.388;17.798;2023-02-15T09:39:08;6.27;;;3.90;;
12687;SDS011;6408;59.388;17.798;2023-02-15T09:44:43;6.93;;;4.60;;
12687;SDS011;6408;59.388;17.798;2023-02-15T09:47:37;7.83;;;4.63;;
12687;SDS011;6408;59.388;17.798;2023-02-15T09:50:21;7.23;;;4.23;;
12687;SDS011;6408;59.388;17.798;2023-02-15T09:52:59;7.17;;;4.67;;
12687;SDS011;6408;59.388;17.798;2023-02-15T09:55:45;6.93;;;4.77;;
12687;SDS011;6408;59.388;17.798;2023-02-15T09:58:20;6.20;;;4.73;;
12687;SDS011;6408;59.388;17.798;2023-02-15T10:00:58;8.10;;;4.30;;
12687;SDS011;6408;59.388;17.798;2023-02-15T10:03:41;6.93;;;4.67;;
12687;SDS011;6408;59.388;17.798;2023-02-15T10:06:19;8.63;;;5.03;;
12687;SDS011;6408;59.388;17.798;2023-02-15T10:09:00;6.90;;;4.77;;
12687;SDS011;6408;59.388;17.798;2023-02-15T10:11:41;7.07;;;4.67;;
12687;SDS011;6408;59.388;17.798;2023-02-15T10:17:19;6.97;;;4.60;;
12687;SDS011;6408;59.388;17.798;2023-02-15T10:19:59;7.20;;;5.03;;
12687;SDS011;6408;59.388;17.798;2023-02-15T10:22:37;7.63;;;4.27;;
12687;SDS011;6408;59.388;17.798;2023-02-15T10:25:15;8.27;;;5.03;;
12687;SDS011;6408;59.388;17.798;2023-02-15T10:27:54;7.13;;;4.30;;
12687;SDS011;6408;59.388;17.798;2023-02-15T10:30:27;8.17;;;4.70;;
12687;SDS011;6408;59.388;17.798;2023-02-15T10:33:08;7.93;;;4.27;;
12687;SDS011;6408;59.388;17.798;2023-02-15T10:35:45;7.53;;;4.60;;
12687;SDS011;6408;59.388;17.798;2023-02-15T10:38:21;6.27;;;4.53;;
12687;SDS011;6408;59.388;17.798;2023-02-15T10:40:57;6.87;;;4.40;;
12687;SDS011;6408;59.388;17.798;2023-02-15T10:43:38;7.67;;;4.40;;
12687;SDS011;6408;59.388;17.798;2023-02-15T10:46:19;6.83;;;4.50;;
12687;SDS011;6408;59.388;17.798;2023-02-15T10:49:07;7.77;;;4.60;;
12687;SDS011;6408;59.388;17.798;2023-02-15T10:51:49;8.80;;;5.30;;
12687;SDS011;6408;59.388;17.798;2023-02-15T10:54:31;8.13;;;4.80;;
12687;SDS011;6408;59.388;17.798;2023-02-15T10:57:06;8.03;;;4.90;;
12687;SDS011;6408;59.388;17.798;2023-02-15T10:59:45;8.00;;;5.03;;
12687;SDS011;6408;59.388;17.798;2023-02-15T11:02:26;8.43;;;4.77;;
12687;SDS011;6408;59.388;17.798;2023-02-15T11:05:13;9.33;;;4.53;;
12687;SDS011;6408;59.388;17.798;2023-02-15T11:07:51;9.73;;;5.57;;
12687;SDS011;6408;59.388;17.798;2023-02-15T11:10:24;8.60;;;5.30;;
12687;SDS011;6408;59.388;17.798;2023-02-15T11:12:56;7.97;;;5.07;;
12687;SDS011;6408;59.388;17.798;2023-02-15T11:15:29;8.80;;;5.50;;
12687;SDS011;6408;59.388;17.798;2023-02-15T11:18:00;7.73;;;5.13;;
12687;SDS011;6408;59.388;17.798;2023-02-15T11:20:35;8.37;;;4.90;;
12687;SDS011;6408;59.388;17.798;2023-02-15T11:23:09;7.43;;;5.20;;
12687;SDS011;6408;59.388;17.798;2023-02-15T11:25:44;8.43;;;5.17;;
12687;SDS011;6408;59.388;17.798;2023-02-15T11:28:17;8.37;;;5.40;;
12687;SDS011;6408;59.388;17.798;2023-02-15T11:30:49;10.13;;;5.40;;
12687;SDS011;6408;59.388;17.798;2023-02-15T11:33:20;9.20;;;5.60;;
12687;SDS011;6408;59.388;17.798;2023-02-15T11:35:55;9.73;;;5.77;;
12687;SDS011;6408;59.388;17.798;2023-02-15T11:38:28;10.30;;;5.83;;
12687;SDS011;6408;59.388;17.798;2023-02-15T11:40:59;9.03;;;4.93;;
12687;SDS011;6408;59.388;17.798;2023-02-15T11:43:32;9.37;;;5.30;;
12687;SDS011;6408;59.388;17.798;2023-02-15T11:46:02;9.03;;;5.37;;
12687;SDS011;6408;59.388;17.798;2023-02-15T11:48:30;9.10;;;5.47;;
12687;SDS011;6408;59.388;17.798;2023-02-15T11:51:00;8.90;;;5.37;;
12687;SDS011;6408;59.388;17.798;2023-02-15T11:53:31;12.47;;;5.77;;
12687;SDS011;6408;59.388;17.798;2023-02-15T11:56:00;9.70;;;5.60;;
12687;SDS011;6408;59.388;17.798;2023-02-15T11:58:33;9.50;;;5.50;;
12687;SDS011;6408;59.388;17.798;2023-02-15T12:01:09;10.07;;;5.27;;
12687;SDS011;6408;59.388;17.798;2023-02-15T12:03:43;10.60;;;6.77;;
12687;SDS011;6408;59.388;17.798;2023-02-15T12:06:17;13.33;;;6.90;;
12687;SDS011;6408;59.388;17.798;2023-02-15T12:08:51;12.13;;;6.73;;
12687;SDS011;6408;59.388;17.798;2023-02-15T12:11:25;10.20;;;5.97;;
12687;SDS011;6408;59.388;17.798;2023-02-15T12:13:57;11.10;;;5.87;;
12687;SDS011;6408;59.388;17.798;2023-02-15T12:16:25;9.33;;;5.53;;
12687;SDS011;6408;59.388;17.798;2023-02-15T12:18:55;11.43;;;6.53;;
12687;SDS011;6408;59.388;17.798;2023-02-15T12:21:26;16.43;;;7.17;;
12687;SDS011;6408;59.388;17.798;2023-02-15T12:23:56;12.50;;;6.53;;
12687;SDS011;6408;59.388;17.798;2023-02-15T12:26:28;12.77;;;7.37;;
12687;SDS011;6408;59.388;17.798;2023-02-15T12:28:57;13.60;;;8.27;;
12687;SDS011;6408;59.388;17.798;2023-02-15T12:31:28;12.80;;;7.73;;
12687;SDS011;6408;59.388;17.798;2023-02-15T12:34:01;11.17;;;6.87;;
12687;SDS011;6408;59.388;17.798;2023-02-15T12:36:39;12.93;;;7.00;;
12687;SDS011;6408;59.388;17.798;2023-02-15T12:39:19;9.30;;;5.47;;
12687;SDS011;6408;59.388;17.798;2023-02-15T12:41:57;9.80;;;5.63;;
12687;SDS011;6408;59.388;17.798;2023-02-15T12:44:27;10.13;;;6.40;;
12687;SDS011;6408;59.388;17.798;2023-02-15T12:46:57;14.33;;;6.43;;
12687;SDS011;6408;59.388;17.798;2023-02-15T12:49:27;11.57;;;5.97;;
12687;SDS011;6408;59.388;17.798;2023-02-15T12:51:57;11.37;;;6.37;;
12687;SDS011;6408;59.388;17.798;2023-02-15T12:54:32;11.97;;;6.40;;
12687;SDS011;6408;59.388;17.798;2023-02-15T12:57:15;13.70;;;6.40;;
12687;SDS011;6408;59.388;17.798;2023-02-15T12:59:50;12.37;;;5.90;;
12687;SDS011;6408;59.388;17.798;2023-02-15T13:02:23;10.17;;;6.00;;
12687;SDS011;6408;59.388;17.798;2023-02-15T13:04:56;11.80;;;5.87;;
12687;SDS011;6408;59.388;17.798;2023-02-15T13:07:33;11.90;;;6.10;;
12687;SDS011;6408;59.388;17.798;2023-02-15T13:10:00;9.70;;;5.70;;
12687;SDS011;6408;59.388;17.798;2023-02-15T13:12:28;10.00;;;6.17;;
12687;SDS011;6408;59.388;17.798;2023-02-15T13:14:58;12.30;;;6.57;;
12687;SDS011;6408;59.388;17.798;2023-02-15T13:17:29;13.67;;;6.57;;
12687;SDS011;6408;59.388;17.798;2023-02-15T13:20:00;9.30;;;6.00;;
12687;SDS011;6408;59.388;17.798;2023-02-15T13:22:37;10.27;;;5.60;;
12687;SDS011;6408;59.388;17.798;2023-02-15T13:25:10;11.00;;;6.17;;
12687;SDS011;6408;59.388;17.798;2023-02-15T13:27:41;9.83;;;5.87;;
12687;SDS011;6408;59.388;17.798;2023-02-15T13:30:16;10.33;;;6.23;;
12687;SDS011;6408;59.388;17.798;2023-02-15T13:32:51;9.33;;;5.63;;
12687;SDS011;6408;59.388;17.798;2023-02-15T13:35:22;10.13;;;5.80;;
12687;SDS011;6408;59.388;17.798;2023-02-15T13:38:00;8.90;;;5.63;;
12687;SDS011;6408;59.388;17.798;2023-02-15T13:40:37;9.87;;;5.27;;
12687;SDS011;6408;59.388;17.798;2023-02-15T13:43:15;10.93;;;5.67;;
12687;SDS011;6408;59.388;17.798;2023-02-15T13:45:56;12.87;;;6.23;;
12687;SDS011;6408;59.388;17.798;2023-02-15T13:48:34;8.53;;;5.17;;
12687;SDS011;6408;59.388;17.798;2023-02-15T13:51:12;10.97;;;6.37;;
12687;SDS011;6408;59.388;17.798;2023-02-15T13:54:03;10.60;;;5.17;;
12687;SDS011;6408;59.388;17.798;2023-02-15T13:56:43;11.23;;;5.40;;
12687;SDS011;6408;59.388;17.798;2023-02-15T14:05:13;10.30;;;5.40;;
12687;SDS011;6408;59.388;17.798;2023-02-15T14:08:00;9.03;;;5.10;;
12687;SDS011;6408;59.388;17.798;2023-02-15T14:10:40;8.33;;;5.53;;
12687;SDS011;6408;59.388;17.798;2023-02-15T14:16:09;9.20;;;5.47;;
12687;SDS011;6408;59.388;17.798;2023-02-15T14:18:43;11.40;;;5.17;;
12687;SDS011;6408;59.388;17.798;2023-02-15T14:21:16;7.53;;;5.30;;
12687;SDS011;6408;59.388;17.798;2023-02-15T14:23:52;9.53;;;5.40;;
12687;SDS011;6408;59.388;17.798;2023-02-15T14:26:29;9.17;;;4.63;;
12687;SDS011;6408;59.388;17.798;2023-02-15T14:29:06;8.93;;;4.53;;
12687;SDS011;6408;59.388;17.798;2023-02-15T14:31:42;9.07;;;4.93;;
12687;SDS011;6408;59.388;17.798;2023-02-15T14:34:17;7.83;;;4.93;;
12687;SDS011;6408;59.388;17.798;2023-02-15T14:36:48;7.87;;;4.47;;
12687;SDS011;6408;59.388;17.798;2023-02-15T14:39:20;8.93;;;4.97;;
12687;SDS011;6408;59.388;17.798;2023-02-15T14:42:17;7.63;;;4.57;;
12687;SDS011;6408;59.388;17.798;2023-02-15T14:44:52;8.10;;;5.23;;
12687;SDS011;6408;59.388;17.798;2023-02-15T14:47:26;8.33;;;4.70;;
12687;SDS011;6408;59.388;17.798;2023-02-15T14:49:59;8.30;;;4.80;;
12687;SDS011;6408;59.388;17.798;2023-02-15T14:56:13;6.90;;;4.43;;
12687;SDS011;6408;59.388;17.798;2023-02-15T15:01:42;8.17;;;4.37;;
12687;SDS011;6408;59.388;17.798;2023-02-15T15:04:24;9.90;;;4.93;;
12687;SDS011;6408;59.388;17.798;2023-02-15T15:07:02;7.57;;;4.50;;
12687;SDS011;6408;59.388;17.798;2023-02-15T15:09:35;8.30;;;4.50;;
12687;SDS011;6408;59.388;17.798;2023-02-15T15:12:35;9.87;;;4.73;;
12687;SDS011;6408;59.388;17.798;2023-02-15T15:15:07;7.17;;;4.40;;
12687;SDS011;6408;59.388;17.798;2023-02-15T15:17:55;9.30;;;4.83;;
12687;SDS011;6408;59.388;17.798;2023-02-15T15:20:42;6.00;;;4.07;;
12687;SDS011;6408;59.388;17.798;2023-02-15T15:28:59;7.40;;;4.17;;
12687;SDS011;6408;59.388;17.798;2023-02-15T15:34:27;7.43;;;4.43;;
12687;SDS011;6408;59.388;17.798;2023-02-15T15:40:42;8.07;;;3.90;;
12687;SDS011;6408;59.388;17.798;2023-02-15T15:46:45;9.40;;;4.70;;
12687;SDS011;6408;59.388;17.798;2023-02-15T15:49:28;9.23;;;6.10;;
12687;SDS011;6408;59.388;17.798;2023-02-15T15:51:59;8.90;;;5.50;;
12687;SDS011;6408;59.388;17.798;2023-02-15T15:54:28;6.93;;;4.43;;
12687;SDS011;6408;59.388;17.798;2023-02-15T15:56:56;7.97;;;4.33;;
12687;SDS011;6408;59.388;17.798;2023-02-15T15:59:29;6.73;;;4.73;;